Time;durP1;ratioP1;P1;durP2;ratioP2;P2;SDS_P1;SDS_P2;PMS_P1;PMS_P2;Temp;Humidity;BMP_temperature;BMP_pressure;BME280_temperature;BME280_humidity;BME280_pressure;Samples;Min_cycle;Max_cycle;Signal;HPM_P1;HPM_P2
2021/06/06 00:00:57;;;;;;;;;;;22.50;70.80;;;;;;5028042;28;19963;-70
2021/06/06 00:03:24;;;;;;;;;;;22.50;70.50;;;;;;5018222;28;19959;-71
2021/06/06 00:05:51;;;;;;;;;;;22.50;70.60;;;;;;5043781;28;20002;-71
2021/06/06 00:08:17;;;;;;;;;;;22.50;70.70;;;;;;5035827;28;20006;-69
2021/06/06 00:10:44;;;;;;;;;;;22.50;70.90;;;;;;5051057;28;20019;-70
2021/06/06 00:13:11;;;;;;;;;;;22.50;71.10;;;;;;5048382;28;19965;-70
2021/06/06 00:15:37;;;;;;;;;;;22.40;71.00;;;;;;5050563;28;20016;-70
2021/06/06 00:18:03;;;;;;;;;;;22.40;70.80;;;;;;5050820;28;20436;-70
2021/06/06 00:20:29;;;;;;;;;;;22.50;71.30;;;;;;5047408;28;20316;-70
2021/06/06 00:22:57;;;;;;;;;;;22.40;71.10;;;;;;5036321;28;20463;-70
2021/06/06 00:25:23;;;;;;;;;;;22.40;70.90;;;;;;5047410;28;19970;-69
2021/06/06 00:27:49;;;;;;;;;;;22.50;71.00;;;;;;5047756;28;20031;-71
2021/06/06 00:30:15;;;;;;;;;;;22.40;70.80;;;;;;5046381;28;19972;-71
2021/06/06 00:32:41;;;;;;;;;;;22.50;70.90;;;;;;5049137;28;19967;-71
2021/06/06 00:35:08;;;;;;;;;;;22.50;70.80;;;;;;5049734;28;19997;-70
2021/06/06 00:37:34;;;;;;;;;;;22.50;70.80;;;;;;5047646;28;19970;-71
2021/06/06 00:40:01;;;;;;;;;;;22.50;70.90;;;;;;5049372;28;19968;-71
2021/06/06 00:42:28;;;;;;;;;;;22.40;70.80;;;;;;5048724;28;19965;-70
2021/06/06 00:44:54;;;;;;;;;;;22.40;71.00;;;;;;5017310;28;19969;-71
2021/06/06 00:47:20;;;;;;;;;;;22.40;70.90;;;;;;5040366;28;20020;-71
2021/06/06 00:49:46;;;;;;;;;;;22.40;70.80;;;;;;5048849;28;20354;-72
2021/06/06 00:52:12;;;;;;;;;;;22.40;70.90;;;;;;5050447;28;19963;-70
2021/06/06 00:54:39;;;;;;;;;;;22.40;71.00;;;;;;5049141;28;20915;-70
2021/06/06 00:57:07;;;;;;;;;;;22.40;70.80;;;;;;5047053;28;19967;-70
2021/06/06 00:59:33;;;;;;;;;;;22.40;70.90;;;;;;5048643;28;19987;-71
2021/06/06 01:01:59;;;;;;;;;;;22.40;70.60;;;;;;5037566;28;19970;-71
2021/06/06 01:04:25;;;;;;;;;;;22.40;70.70;;;;;;5047568;28;19965;-70
2021/06/06 01:06:52;;;;;;;;;;;22.40;70.80;;;;;;5045492;28;19971;-71
2021/06/06 01:09:19;;;;;;;;;;;22.40;70.90;;;;;;5048819;28;20355;-70
2021/06/06 01:11:46;;;;;;;;;;;22.40;70.80;;;;;;5045429;28;19963;-71
2021/06/06 01:14:14;;;;;;;;;;;22.40;70.60;;;;;;5046964;28;19970;-71
2021/06/06 01:16:44;;;;;;;;;;;22.40;70.60;;;;;;5041799;28;20923;-71
2021/06/06 01:19:11;;;;;;;;;;;22.40;70.50;;;;;;5043978;28;19973;-72
2021/06/06 01:21:41;;;;;;;;;;;22.40;70.20;;;;;;5047181;28;19936;-71
2021/06/06 01:24:13;;;;;;;;;;;22.40;70.10;;;;;;5021502;28;19977;-71
2021/06/06 01:26:40;;;;;;;;;;;22.40;70.00;;;;;;5018857;28;20494;-72
2021/06/06 01:29:07;;;;;;;;;;;22.40;69.90;;;;;;5017053;28;19968;-71
2021/06/06 01:31:34;;;;;;;;;;;22.40;69.90;;;;;;5045458;28;19969;-70
2021/06/06 01:34:00;;;;;;;;;;;22.40;70.00;;;;;;5047326;28;19973;-70
2021/06/06 01:36:27;;;;;;;;;;;22.40;70.00;;;;;;5048129;28;19969;-69
2021/06/06 01:38:55;;;;;;;;;;;22.40;70.00;;;;;;5047249;28;19966;-70
2021/06/06 01:41:23;;;;;;;;;;;22.50;70.00;;;;;;5047876;28;20049;-70
2021/06/06 01:43:50;;;;;;;;;;;22.40;69.70;;;;;;5047317;28;20025;-72
2021/06/06 01:46:16;;;;;;;;;;;22.40;69.80;;;;;;5048584;28;19968;-71
2021/06/06 01:48:42;;;;;;;;;;;22.50;69.70;;;;;;5048214;28;19963;-71
2021/06/06 01:51:11;;;;;;;;;;;22.50;69.80;;;;;;5044777;28;20031;-70
2021/06/06 01:53:37;;;;;;;;;;;22.50;69.70;;;;;;5019884;28;20740;-71
2021/06/06 01:56:04;;;;;;;;;;;22.40;69.60;;;;;;5047548;28;19970;-69
2021/06/06 01:58:31;;;;;;;;;;;22.40;69.70;;;;;;5047020;28;19968;-71
2021/06/06 02:00:58;;;;;;;;;;;22.40;69.80;;;;;;5042353;28;19993;-71
2021/06/06 02:03:24;;;;;;;;;;;22.40;69.80;;;;;;5047338;28;19978;-71
2021/06/06 02:05:50;;;;;;;;;;;22.40;69.80;;;;;;5047237;28;20053;-70
2021/06/06 02:08:17;;;;;;;;;;;22.40;69.70;;;;;;5050144;28;20007;-70
2021/06/06 02:10:43;;;;;;;;;;;22.40;69.70;;;;;;5047143;28;20017;-70
2021/06/06 02:13:10;;;;;;;;;;;22.40;69.60;;;;;;5048868;28;19968;-70
2021/06/06 02:15:37;;;;;;;;;;;22.40;69.60;;;;;;5047624;28;20331;-70
2021/06/06 02:18:04;;;;;;;;;;;22.40;69.70;;;;;;5045084;28;19967;-69
2021/06/06 02:20:36;;;;;;;;;;;22.40;69.60;;;;;;5045498;28;19962;-70
2021/06/06 02:23:02;;;;;;;;;;;22.40;69.50;;;;;;5046986;28;19978;-70
2021/06/06 02:25:28;;;;;;;;;;;22.40;69.60;;;;;;5046897;28;19958;-70
2021/06/06 02:27:58;;;;;;;;;;;22.40;69.70;;;;;;5045591;28;20023;-70
2021/06/06 02:30:25;;;;;;;;;;;22.40;69.70;;;;;;5046580;28;20058;-70
2021/06/06 02:32:54;;;;;;;;;;;22.30;69.40;;;;;;5043790;28;20057;-71
2021/06/06 02:35:21;;;;;;;;;;;22.30;69.40;;;;;;5036216;28;20431;-69
2021/06/06 02:37:48;;;;;;;;;;;22.30;69.40;;;;;;5045017;28;19963;-70
2021/06/06 02:40:16;;;;;;;;;;;22.30;69.30;;;;;;5047478;28;19970;-71
2021/06/06 02:42:43;;;;;;;;;;;22.30;69.40;;;;;;5045058;28;20446;-70
2021/06/06 02:45:09;;;;;;;;;;;22.30;69.40;;;;;;5047093;28;19967;-70
2021/06/06 02:47:36;;;;;;;;;;;22.30;69.40;;;;;;5034086;28;19963;-69
2021/06/06 02:50:05;;;;;;;;;;;22.30;69.40;;;;;;5045419;28;19967;-69
2021/06/06 02:52:39;;;;;;;;;;;22.30;69.30;;;;;;5045846;28;20427;-71
2021/06/06 02:55:06;;;;;;;;;;;22.30;69.30;;;;;;5047132;28;19974;-70
2021/06/06 02:57:32;;;;;;;;;;;22.30;69.30;;;;;;5046369;28;20016;-70
2021/06/06 03:00:00;;;;;;;;;;;22.30;69.20;;;;;;5045946;28;19975;-70
2021/06/06 03:02:26;;;;;;;;;;;22.30;69.20;;;;;;5035640;28;20130;-69
2021/06/06 03:04:53;;;;;;;;;;;22.30;69.20;;;;;;5046288;28;19962;-70
2021/06/06 03:07:21;;;;;;;;;;;22.30;69.00;;;;;;5036311;28;19975;-70
2021/06/06 03:09:47;;;;;;;;;;;22.30;69.00;;;;;;5045786;28;19970;-69
2021/06/06 03:12:13;;;;;;;;;;;22.30;69.10;;;;;;5045764;28;20059;-69
2021/06/06 03:14:41;;;;;;;;;;;22.30;69.00;;;;;;5036483;28;20401;-69
2021/06/06 03:17:08;;;;;;;;;;;22.30;69.00;;;;;;5047185;28;20013;-70
2021/06/06 03:19:35;;;;;;;;;;;22.30;69.10;;;;;;5025654;28;19970;-69
2021/06/06 03:22:01;;;;;;;;;;;22.30;69.00;;;;;;5031361;28;20013;-71
2021/06/06 03:24:29;;;;;;;;;;;22.30;69.00;;;;;;5047932;28;19962;-69
2021/06/06 03:26:55;;;;;;;;;;;22.30;69.00;;;;;;5040468;28;19972;-71
2021/06/06 03:29:23;;;;;;;;;;;22.30;68.90;;;;;;5050330;28;20014;-70
2021/06/06 03:31:50;;;;;;;;;;;22.30;68.70;;;;;;5049995;28;19966;-69
2021/06/06 03:34:16;;;;;;;;;;;22.40;68.80;;;;;;5050766;28;19970;-70
2021/06/06 03:36:43;;;;;;;;;;;22.30;68.80;;;;;;5050499;28;19966;-70
2021/06/06 03:39:10;;;;;;;;;;;22.40;68.70;;;;;;5047381;28;20591;-71
2021/06/06 03:41:37;;;;;;;;;;;22.40;68.70;;;;;;5050795;28;19963;-70
2021/06/06 03:44:04;;;;;;;;;;;22.40;68.70;;;;;;5047660;28;19964;-70
2021/06/06 03:46:30;;;;;;;;;;;22.40;68.70;;;;;;5050472;28;19959;-70
2021/06/06 03:48:56;;;;;;;;;;;22.30;68.70;;;;;;5047782;28;19972;-70
2021/06/06 03:51:22;;;;;;;;;;;22.30;68.70;;;;;;5045868;28;19962;-69
2021/06/06 03:53:48;;;;;;;;;;;22.30;68.80;;;;;;5048803;28;20717;-69
2021/06/06 03:56:14;;;;;;;;;;;22.30;69.00;;;;;;5046795;28;19964;-70
2021/06/06 03:58:42;;;;;;;;;;;22.30;69.00;;;;;;5048842;28;19970;-70
2021/06/06 04:01:08;;;;;;;;;;;22.30;68.90;;;;;;5049118;28;19963;-70
2021/06/06 04:03:34;;;;;;;;;;;22.30;69.00;;;;;;5047776;28;20360;-70
2021/06/06 04:06:00;;;;;;;;;;;22.30;69.00;;;;;;5049690;28;20445;-70
2021/06/06 04:08:26;;;;;;;;;;;22.20;68.80;;;;;;5039555;28;19966;-70
2021/06/06 04:10:52;;;;;;;;;;;22.20;68.80;;;;;;5049226;28;19970;-70
2021/06/06 04:13:18;;;;;;;;;;;22.20;68.80;;;;;;5037967;28;19976;-70
2021/06/06 04:15:45;;;;;;;;;;;22.20;68.90;;;;;;5043417;28;19963;-70
2021/06/06 04:18:12;;;;;;;;;;;22.20;68.90;;;;;;5032580;28;20377;-69
2021/06/06 04:20:38;;;;;;;;;;;22.20;68.80;;;;;;5014434;28;19972;-70
2021/06/06 04:23:04;;;;;;;;;;;22.20;68.80;;;;;;5046333;28;19962;-70
2021/06/06 04:25:30;;;;;;;;;;;22.20;68.70;;;;;;5050764;28;19936;-71
2021/06/06 04:27:56;;;;;;;;;;;22.20;68.70;;;;;;5047031;28;20631;-71
2021/06/06 04:30:22;;;;;;;;;;;22.20;68.70;;;;;;5033902;28;19973;-70
2021/06/06 04:32:50;;;;;;;;;;;22.20;68.70;;;;;;5047515;28;19963;-70
2021/06/06 04:35:16;;;;;;;;;;;22.20;68.80;;;;;;5048398;28;19960;-71
2021/06/06 04:37:42;;;;;;;;;;;22.20;68.70;;;;;;5045894;28;19967;-71
2021/06/06 04:40:09;;;;;;;;;;;22.20;68.70;;;;;;5049549;28;19972;-70
2021/06/06 04:42:35;;;;;;;;;;;22.20;68.70;;;;;;5046473;28;19963;-70
2021/06/06 04:45:01;;;;;;;;;;;22.20;68.70;;;;;;5046225;28;19966;-71
2021/06/06 04:47:27;;;;;;;;;;;22.20;68.80;;;;;;5046936;28;19959;-72
2021/06/06 04:49:55;;;;;;;;;;;22.20;68.70;;;;;;5052076;28;19970;-72
2021/06/06 04:52:21;;;;;;;;;;;22.20;68.70;;;;;;5047654;28;19966;-71
2021/06/06 04:54:47;;;;;;;;;;;22.20;68.70;;;;;;5049978;28;19963;-72
2021/06/06 04:57:13;;;;;;;;;;;22.20;68.70;;;;;;5049113;28;20471;-72
2021/06/06 04:59:39;;;;;;;;;;;22.20;68.70;;;;;;5046211;28;19972;-70
2021/06/06 05:02:06;;;;;;;;;;;22.20;68.70;;;;;;5044842;28;20353;-70
2021/06/06 05:04:32;;;;;;;;;;;22.20;68.80;;;;;;5035175;28;20020;-70
2021/06/06 05:06:59;;;;;;;;;;;22.20;68.80;;;;;;5048878;28;20487;-72
2021/06/06 05:09:25;;;;;;;;;;;22.20;68.70;;;;;;5021892;28;20555;-68
2021/06/06 05:11:51;;;;;;;;;;;22.20;68.70;;;;;;5041369;28;20569;-69
2021/06/06 05:14:17;;;;;;;;;;;22.20;68.80;;;;;;5049750;28;19964;-69
2021/06/06 05:16:43;;;;;;;;;;;22.20;68.90;;;;;;5048450;28;20049;-70
2021/06/06 05:19:09;;;;;;;;;;;22.20;69.10;;;;;;5045834;28;20811;-70
2021/06/06 05:21:35;;;;;;;;;;;22.20;69.10;;;;;;5048994;28;19972;-71
2021/06/06 05:24:03;;;;;;;;;;;22.20;68.90;;;;;;5048471;28;20045;-71
2021/06/06 05:26:29;;;;;;;;;;;22.20;69.00;;;;;;5048182;28;19960;-71
2021/06/06 05:28:55;;;;;;;;;;;22.20;69.50;;;;;;5036767;28;20468;-70
2021/06/06 05:31:21;;;;;;;;;;;22.20;69.50;;;;;;5046288;28;19994;-70
2021/06/06 05:33:47;;;;;;;;;;;22.30;69.50;;;;;;5042067;28;20373;-70
2021/06/06 05:36:14;;;;;;;;;;;22.40;69.30;;;;;;5046694;28;19967;-69
2021/06/06 05:38:40;;;;;;;;;;;22.40;69.10;;;;;;5047609;28;19970;-70
2021/06/06 05:41:07;;;;;;;;;;;22.40;68.60;;;;;;5044407;28;20003;-70
2021/06/06 05:43:33;;;;;;;;;;;22.40;68.70;;;;;;5047022;28;19978;-70
2021/06/06 05:46:00;;;;;;;;;;;22.50;68.40;;;;;;5046619;28;20373;-70
2021/06/06 05:48:26;;;;;;;;;;;22.50;68.50;;;;;;5046561;28;19958;-69
2021/06/06 05:50:52;;;;;;;;;;;22.50;68.50;;;;;;5046277;28;20459;-70
2021/06/06 05:53:18;;;;;;;;;;;22.50;68.40;;;;;;5049187;28;19963;-69
2021/06/06 05:55:44;;;;;;;;;;;22.50;68.70;;;;;;5046742;28;19929;-70
2021/06/06 05:58:12;;;;;;;;;;;22.40;68.70;;;;;;5047169;28;20012;-70
2021/06/06 06:00:39;;;;;;;;;;;22.40;68.70;;;;;;5043260;28;19962;-70
2021/06/06 06:03:05;;;;;;;;;;;22.30;68.80;;;;;;5047643;28;19972;-69
2021/06/06 06:05:31;;;;;;;;;;;22.40;69.00;;;;;;5038124;28;19973;-69
2021/06/06 06:07:57;;;;;;;;;;;22.30;68.70;;;;;;5040931;28;19964;-71
2021/06/06 06:10:24;;;;;;;;;;;22.40;68.90;;;;;;5036936;28;19965;-71
2021/06/06 06:12:50;;;;;;;;;;;22.30;68.80;;;;;;5030258;28;19962;-70
2021/06/06 06:15:17;;;;;;;;;;;22.30;68.80;;;;;;5048071;28;19969;-70
2021/06/06 06:17:43;;;;;;;;;;;22.30;69.00;;;;;;5043256;28;19966;-71
2021/06/06 06:20:10;;;;;;;;;;;22.30;69.00;;;;;;5044255;28;19979;-71
2021/06/06 06:22:36;;;;;;;;;;;22.30;69.00;;;;;;5045290;28;19964;-69
2021/06/06 06:25:02;;;;;;;;;;;22.30;69.00;;;;;;5039230;28;19977;-69
2021/06/06 06:27:28;;;;;;;;;;;22.40;69.10;;;;;;5028352;28;20516;-70
2021/06/06 06:29:54;;;;;;;;;;;22.40;68.80;;;;;;5044656;28;19970;-71
2021/06/06 06:32:22;;;;;;;;;;;22.40;68.70;;;;;;5046263;28;20009;-70
2021/06/06 06:34:48;;;;;;;;;;;22.40;68.70;;;;;;5047114;28;19967;-69
2021/06/06 06:37:14;;;;;;;;;;;22.40;68.70;;;;;;5045955;28;19969;-70
2021/06/06 06:39:40;;;;;;;;;;;22.30;68.80;;;;;;5047314;28;19929;-70
2021/06/06 06:42:06;;;;;;;;;;;22.30;68.80;;;;;;5046078;28;20426;-71
2021/06/06 06:44:32;;;;;;;;;;;22.40;69.10;;;;;;5041820;28;19974;-69
2021/06/06 06:46:58;;;;;;;;;;;22.30;68.80;;;;;;5043329;28;19963;-71
2021/06/06 06:49:25;;;;;;;;;;;22.30;68.80;;;;;;5040359;28;19967;-70
2021/06/06 06:51:51;;;;;;;;;;;22.30;68.80;;;;;;5040755;28;19963;-71
2021/06/06 06:54:17;;;;;;;;;;;22.30;68.80;;;;;;5036730;28;19969;-70
2021/06/06 06:56:43;;;;;;;;;;;22.30;68.70;;;;;;5025941;28;19958;-72
2021/06/06 06:59:09;;;;;;;;;;;22.30;68.90;;;;;;5042994;28;20918;-72
2021/06/06 07:01:35;;;;;;;;;;;22.30;68.90;;;;;;5046842;28;19963;-71
2021/06/06 07:04:01;;;;;;;;;;;22.30;69.00;;;;;;5044516;28;20653;-70
2021/06/06 07:06:29;;;;;;;;;;;22.30;69.00;;;;;;5019817;28;19966;-70
2021/06/06 07:08:55;;;;;;;;;;;22.30;69.10;;;;;;5035428;28;19971;-71
2021/06/06 07:11:21;;;;;;;;;;;22.30;69.00;;;;;;5040575;28;19966;-71
2021/06/06 07:13:48;;;;;;;;;;;22.30;69.10;;;;;;5042513;28;19959;-70
2021/06/06 07:16:14;;;;;;;;;;;22.30;69.20;;;;;;5044573;28;19969;-70
2021/06/06 07:18:40;;;;;;;;;;;22.30;69.00;;;;;;5044103;28;19962;-70
2021/06/06 07:21:07;;;;;;;;;;;22.30;69.10;;;;;;5039141;28;19965;-71
2021/06/06 07:23:34;;;;;;;;;;;22.30;69.20;;;;;;5045376;28;19936;-70
2021/06/06 07:26:01;;;;;;;;;;;22.30;69.10;;;;;;5035793;28;19975;-70
2021/06/06 07:28:27;;;;;;;;;;;22.30;69.10;;;;;;5037667;28;20449;-70
2021/06/06 07:30:54;;;;;;;;;;;22.30;69.10;;;;;;5047045;28;20016;-70
2021/06/06 07:33:21;;;;;;;;;;;22.30;69.20;;;;;;5047699;28;19966;-70
2021/06/06 07:35:47;;;;;;;;;;;22.30;69.00;;;;;;5035728;28;19985;-71
2021/06/06 07:38:13;;;;;;;;;;;22.30;69.10;;;;;;5040795;28;19967;-71
2021/06/06 07:40:41;;;;;;;;;;;22.30;69.20;;;;;;5015038;28;19963;-70
2021/06/06 07:43:07;;;;;;;;;;;22.30;69.30;;;;;;5044112;28;19963;-72
2021/06/06 07:45:33;;;;;;;;;;;22.30;69.10;;;;;;5045408;28;19933;-71
2021/06/06 07:47:59;;;;;;;;;;;22.30;69.10;;;;;;5043351;28;19972;-70
2021/06/06 07:50:26;;;;;;;;;;;22.30;69.10;;;;;;5045817;28;20013;-70
2021/06/06 07:52:52;;;;;;;;;;;22.30;69.20;;;;;;5039105;28;21601;-71
2021/06/06 07:55:19;;;;;;;;;;;22.30;69.20;;;;;;5047034;28;19973;-69
2021/06/06 07:57:46;;;;;;;;;;;22.30;69.20;;;;;;5049159;28;19966;-71
2021/06/06 08:00:14;;;;;;;;;;;22.30;69.40;;;;;;5025003;28;20006;-70
2021/06/06 08:02:41;;;;;;;;;;;22.30;69.40;;;;;;5006444;28;20009;-71
2021/06/06 08:05:07;;;;;;;;;;;22.30;69.30;;;;;;5034528;28;19977;-70
2021/06/06 08:07:33;;;;;;;;;;;22.30;69.40;;;;;;5045961;28;19966;-72
2021/06/06 08:09:59;;;;;;;;;;;22.30;69.40;;;;;;5049367;28;19959;-71
2021/06/06 08:12:26;;;;;;;;;;;22.30;69.60;;;;;;5047158;28;19989;-70
2021/06/06 08:14:54;;;;;;;;;;;22.30;69.40;;;;;;5046693;28;19963;-69
2021/06/06 08:17:20;;;;;;;;;;;22.30;69.60;;;;;;5045987;28;19999;-71
2021/06/06 08:19:46;;;;;;;;;;;22.30;69.40;;;;;;5047101;28;19966;-71
2021/06/06 08:22:12;;;;;;;;;;;22.30;69.60;;;;;;5044764;28;19963;-71
2021/06/06 08:24:38;;;;;;;;;;;22.30;69.40;;;;;;5046442;28;20326;-69
2021/06/06 08:27:05;;;;;;;;;;;22.30;69.50;;;;;;5047673;28;19967;-70
2021/06/06 08:29:31;;;;;;;;;;;22.20;69.40;;;;;;5043045;28;19966;-71
2021/06/06 08:31:59;;;;;;;;;;;22.30;69.70;;;;;;5034296;28;19971;-70
2021/06/06 08:34:25;;;;;;;;;;;22.20;69.70;;;;;;5040499;28;20363;-70
2021/06/06 08:36:51;;;;;;;;;;;22.20;69.70;;;;;;5030723;28;20585;-71
2021/06/06 08:39:18;;;;;;;;;;;22.20;69.70;;;;;;5038759;28;20053;-70
2021/06/06 08:41:45;;;;;;;;;;;22.20;69.70;;;;;;5040426;28;20513;-70
2021/06/06 08:44:12;;;;;;;;;;;22.30;69.60;;;;;;5043755;28;20017;-70
2021/06/06 08:46:42;;;;;;;;;;;22.30;69.70;;;;;;5042030;28;19940;-69
2021/06/06 08:49:09;;;;;;;;;;;22.20;70.60;;;;;;5039403;28;19959;-70
2021/06/06 08:51:39;;;;;;;;;;;22.30;69.60;;;;;;5038737;28;19959;-71
2021/06/06 08:54:11;;;;;;;;;;;22.30;69.80;;;;;;5021695;28;20634;-70
2021/06/06 08:56:37;;;;;;;;;;;22.20;69.60;;;;;;5026903;28;20673;-70
2021/06/06 08:59:05;;;;;;;;;;;22.20;69.70;;;;;;5027695;28;19963;-70
2021/06/06 09:01:40;;;;;;;;;;;22.20;70.00;;;;;;5033488;28;19975;-71
2021/06/06 09:04:07;;;;;;;;;;;22.30;71.10;;;;;;5042891;28;20709;-72
2021/06/06 09:06:36;;;;;;;;;;;22.30;70.00;;;;;;5041771;28;19959;-70
2021/06/06 09:09:03;;;;;;;;;;;22.30;69.80;;;;;;5035500;28;20625;-70
2021/06/06 09:11:30;;;;;;;;;;;22.30;69.80;;;;;;5031867;28;20070;-71
2021/06/06 09:13:56;;;;;;;;;;;22.30;69.90;;;;;;5042470;28;19970;-72
2021/06/06 09:16:23;;;;;;;;;;;22.30;69.70;;;;;;5020249;28;20037;-71
2021/06/06 09:18:58;;;;;;;;;;;22.30;69.70;;;;;;5038988;28;20622;-69
2021/06/06 09:21:24;;;;;;;;;;;22.30;69.80;;;;;;5019966;28;20064;-70
2021/06/06 09:23:52;;;;;;;;;;;22.30;69.70;;;;;;5032193;28;20474;-72
2021/06/06 09:26:21;;;;;;;;;;;22.20;69.70;;;;;;5041945;28;19965;-70
2021/06/06 09:28:48;;;;;;;;;;;22.20;69.80;;;;;;5040662;28;19963;-70
2021/06/06 09:31:19;;;;;;;;;;;22.30;69.80;;;;;;5037554;28;19973;-70
2021/06/06 09:33:46;;;;;;;;;;;22.30;69.70;;;;;;5037311;28;20472;-70
2021/06/06 09:36:16;;;;;;;;;;;22.20;69.70;;;;;;5045720;28;19963;-70
2021/06/06 09:38:42;;;;;;;;;;;22.30;70.00;;;;;;5017035;28;19963;-71
2021/06/06 09:41:15;;;;;;;;;;;22.20;69.80;;;;;;5027863;28;19969;-70
2021/06/06 09:43:41;;;;;;;;;;;22.20;69.80;;;;;;5010532;28;19967;-70
2021/06/06 09:46:08;;;;;;;;;;;22.20;69.60;;;;;;5041467;28;20575;-70
2021/06/06 09:48:39;;;;;;;;;;;22.20;70.10;;;;;;5041328;28;19967;-72
2021/06/06 09:51:10;;;;;;;;;;;22.20;70.00;;;;;;5037802;28;20015;-71
2021/06/06 09:53:37;;;;;;;;;;;22.20;70.10;;;;;;5044199;28;20002;-71
2021/06/06 09:56:06;;;;;;;;;;;22.20;70.10;;;;;;5039794;28;19971;-70
2021/06/06 09:58:34;;;;;;;;;;;22.20;70.20;;;;;;5036819;28;19970;-69
2021/06/06 10:01:02;;;;;;;;;;;22.20;70.10;;;;;;5039642;28;19966;-72
2021/06/06 10:03:30;;;;;;;;;;;22.20;70.10;;;;;;5042584;28;19966;-70
2021/06/06 10:06:09;;;;;;;;;;;22.20;70.00;;;;;;5043140;28;19968;-70
2021/06/06 10:08:35;;;;;;;;;;;22.20;70.10;;;;;;5043627;28;20091;-70
2021/06/06 10:11:07;;;;;;;;;;;22.20;70.00;;;;;;5038756;28;20044;-70
2021/06/06 10:13:34;;;;;;;;;;;22.20;69.90;;;;;;5045967;28;19973;-70
2021/06/06 10:16:00;;;;;;;;;;;22.30;70.00;;;;;;5041131;28;19974;-71
2021/06/06 10:18:27;;;;;;;;;;;22.20;70.00;;;;;;5044642;28;20606;-69
2021/06/06 10:20:54;;;;;;;;;;;22.30;70.00;;;;;;5038036;28;19972;-70
2021/06/06 10:23:20;;;;;;;;;;;22.20;69.80;;;;;;5042229;28;19967;-71
2021/06/06 10:25:48;;;;;;;;;;;22.30;69.80;;;;;;5043567;28;19966;-70
2021/06/06 10:28:14;;;;;;;;;;;22.30;69.90;;;;;;5039860;28;19967;-70
2021/06/06 10:30:42;;;;;;;;;;;22.30;69.80;;;;;;5017106;28;19963;-71
2021/06/06 10:33:15;;;;;;;;;;;22.30;70.00;;;;;;5039905;28;19963;-69
2021/06/06 10:35:41;;;;;;;;;;;22.30;69.80;;;;;;5021945;28;19972;-70
2021/06/06 10:38:07;;;;;;;;;;;22.30;69.80;;;;;;5047379;28;19970;-71
2021/06/06 10:40:35;;;;;;;;;;;22.20;69.70;;;;;;5043686;28;19962;-70
2021/06/06 10:43:01;;;;;;;;;;;22.30;69.70;;;;;;5047089;28;19975;-71
2021/06/06 10:45:29;;;;;;;;;;;22.20;69.60;;;;;;5048307;28;19958;-70
2021/06/06 10:47:57;;;;;;;;;;;22.20;69.70;;;;;;5049806;28;20475;-71
2021/06/06 10:50:26;;;;;;;;;;;22.20;69.60;;;;;;5037936;28;20440;-70
2021/06/06 10:52:52;;;;;;;;;;;22.20;69.80;;;;;;5026671;28;20396;-72
2021/06/06 10:55:24;;;;;;;;;;;22.20;69.70;;;;;;5026465;28;20581;-71
2021/06/06 10:57:50;;;;;;;;;;;22.20;69.70;;;;;;5008557;28;19970;-71
2021/06/06 11:00:25;;;;;;;;;;;22.20;69.90;;;;;;5039021;28;19959;-72
2021/06/06 11:02:53;;;;;;;;;;;22.20;70.00;;;;;;4990853;28;20000;-70
2021/06/06 11:05:25;;;;;;;;;;;22.20;70.00;;;;;;5018351;28;20000;-71
2021/06/06 11:07:51;;;;;;;;;;;22.20;70.00;;;;;;5037005;28;19977;-71
2021/06/06 11:10:34;;;;;;;;;;;22.20;70.00;;;;;;5029681;28;19963;-70
2021/06/06 11:13:10;;;;;;;;;;;22.20;70.00;;;;;;5029705;28;19971;-70
2021/06/06 11:15:37;;;;;;;;;;;22.20;69.90;;;;;;5038739;28;19971;-71
2021/06/06 11:18:06;;;;;;;;;;;22.20;69.90;;;;;;5046777;28;19974;-70
2021/06/06 11:20:35;;;;;;;;;;;22.20;69.80;;;;;;5020562;28;21997;-70
2021/06/06 11:23:10;;;;;;;;;;;22.20;69.70;;;;;;5026189;28;20805;-72
2021/06/06 11:25:37;;;;;;;;;;;22.20;69.80;;;;;;5036385;28;20464;-71
2021/06/06 11:28:04;;;;;;;;;;;22.20;69.90;;;;;;5048268;28;19989;-70
2021/06/06 11:30:40;;;;;;;;;;;22.20;70.00;;;;;;5033534;28;20205;-71
2021/06/06 11:33:07;;;;;;;;;;;22.20;70.00;;;;;;5045755;28;20002;-72
2021/06/06 11:35:50;;;;;;;;;;;22.30;70.00;;;;;;5048223;28;19972;-70
2021/06/06 11:38:31;;;;;;;;;;;22.20;70.00;;;;;;5036181;28;19960;-72
2021/06/06 11:41:21;;;;;;;;;;;22.30;70.00;;;;;;5034117;28;19967;-70
2021/06/06 11:43:49;;;;;;;;;;;22.30;69.80;;;;;;4998443;28;19969;-70
2021/06/06 11:46:16;;;;;;;;;;;22.30;69.70;;;;;;5025963;28;20088;-70
2021/06/06 11:48:51;;;;;;;;;;;22.30;69.60;;;;;;5039122;28;20534;-70
2021/06/06 11:51:22;;;;;;;;;;;22.30;69.50;;;;;;5003701;28;20450;-70
2021/06/06 11:53:48;;;;;;;;;;;22.30;69.50;;;;;;5016186;28;19964;-71
2021/06/06 11:56:15;;;;;;;;;;;22.30;69.60;;;;;;5041816;28;19962;-71
2021/06/06 11:58:41;;;;;;;;;;;22.30;69.50;;;;;;5045259;28;20330;-70
2021/06/06 12:01:10;;;;;;;;;;;22.30;69.60;;;;;;5042390;28;19929;-70
2021/06/06 12:03:37;;;;;;;;;;;22.40;69.60;;;;;;4999887;28;19936;-70
2021/06/06 12:06:05;;;;;;;;;;;22.40;69.70;;;;;;5042509;28;19990;-70
2021/06/06 12:08:33;;;;;;;;;;;22.40;69.60;;;;;;4991497;28;19969;-71
2021/06/06 12:11:00;;;;;;;;;;;22.40;69.60;;;;;;5033608;28;19963;-70
2021/06/06 12:13:26;;;;;;;;;;;22.40;69.50;;;;;;5037117;28;20023;-70
2021/06/06 12:15:54;;;;;;;;;;;22.40;69.50;;;;;;5040098;28;19969;-70
2021/06/06 12:18:21;;;;;;;;;;;22.40;69.50;;;;;;5015808;28;19966;-72
2021/06/06 12:20:48;;;;;;;;;;;22.40;69.50;;;;;;5026581;28;20579;-71
2021/06/06 12:23:14;;;;;;;;;;;22.40;69.30;;;;;;5040639;28;20802;-70
2021/06/06 12:25:42;;;;;;;;;;;22.40;70.20;;;;;;5046798;28;19963;-70
2021/06/06 12:28:11;;;;;;;;;;;22.40;69.50;;;;;;5030298;28;19962;-72
2021/06/06 12:30:38;;;;;;;;;;;22.40;69.40;;;;;;5031800;28;20049;-71
2021/06/06 12:33:05;;;;;;;;;;;22.40;69.30;;;;;;5039830;28;19973;-71
2021/06/06 12:35:32;;;;;;;;;;;22.40;69.30;;;;;;5044748;28;20030;-71
2021/06/06 12:37:59;;;;;;;;;;;22.30;69.20;;;;;;5040408;28;20594;-70
2021/06/06 12:40:26;;;;;;;;;;;22.40;69.40;;;;;;5029977;28;19967;-71
2021/06/06 12:42:55;;;;;;;;;;;22.40;69.40;;;;;;5043756;28;19963;-70
2021/06/06 12:45:21;;;;;;;;;;;22.40;69.40;;;;;;5013603;28;20024;-69
2021/06/06 12:47:47;;;;;;;;;;;22.40;69.30;;;;;;5043680;28;20965;-69
2021/06/06 12:50:21;;;;;;;;;;;22.40;69.40;;;;;;5005429;28;19975;-72
2021/06/06 12:52:48;;;;;;;;;;;22.30;69.20;;;;;;5036077;28;19932;-69
2021/06/06 12:55:16;;;;;;;;;;;22.40;69.80;;;;;;5011599;28;20451;-69
2021/06/06 12:57:48;;;;;;;;;;;22.40;69.30;;;;;;5034119;28;19964;-70
2021/06/06 13:00:19;;;;;;;;;;;22.40;69.20;;;;;;5010475;28;20957;-71
2021/06/06 13:02:45;;;;;;;;;;;22.40;69.20;;;;;;5041102;28;19959;-71
2021/06/06 13:05:12;;;;;;;;;;;22.40;69.10;;;;;;5045240;28;19973;-70
2021/06/06 13:07:39;;;;;;;;;;;22.40;69.20;;;;;;5043676;28;19985;-69
2021/06/06 13:10:06;;;;;;;;;;;22.40;69.10;;;;;;5007455;28;19971;-70
2021/06/06 13:12:33;;;;;;;;;;;22.40;69.00;;;;;;5042901;28;20016;-69
2021/06/06 13:15:00;;;;;;;;;;;22.40;69.00;;;;;;5041860;28;19967;-70
2021/06/06 13:17:29;;;;;;;;;;;22.40;69.10;;;;;;5042669;28;19959;-71
2021/06/06 13:20:04;;;;;;;;;;;22.40;69.00;;;;;;5033822;28;19990;-71
2021/06/06 13:22:31;;;;;;;;;;;22.40;69.10;;;;;;5044549;28;19966;-71
2021/06/06 13:24:57;;;;;;;;;;;22.40;69.10;;;;;;5043906;28;19967;-70
2021/06/06 13:27:32;;;;;;;;;;;22.40;69.30;;;;;;5036769;28;20034;-70
2021/06/06 13:29:58;;;;;;;;;;;22.30;69.20;;;;;;5002011;28;20820;-72
2021/06/06 13:32:25;;;;;;;;;;;22.30;69.10;;;;;;5038956;28;20825;-72
2021/06/06 13:34:53;;;;;;;;;;;22.30;69.10;;;;;;5045045;28;20319;-71
2021/06/06 13:37:19;;;;;;;;;;;22.30;69.10;;;;;;5041634;28;19967;-71
2021/06/06 13:39:48;;;;;;;;;;;22.30;69.20;;;;;;5033814;28;19959;-72
2021/06/06 13:42:14;;;;;;;;;;;22.30;69.20;;;;;;4988494;28;19967;-71
2021/06/06 13:44:40;;;;;;;;;;;22.30;69.20;;;;;;5031460;28;19964;-72
2021/06/06 13:47:06;;;;;;;;;;;22.30;69.20;;;;;;5042203;28;19963;-71
2021/06/06 13:49:32;;;;;;;;;;;22.30;69.20;;;;;;5027695;28;20024;-72
2021/06/06 13:51:59;;;;;;;;;;;22.30;69.20;;;;;;5030881;28;20491;-70
2021/06/06 13:54:25;;;;;;;;;;;22.30;69.20;;;;;;5033805;28;19966;-71
2021/06/06 13:56:52;;;;;;;;;;;22.30;69.20;;;;;;5043151;28;20013;-73
2021/06/06 13:59:18;;;;;;;;;;;22.30;69.20;;;;;;5031725;28;19967;-70
2021/06/06 14:01:44;;;;;;;;;;;22.30;69.20;;;;;;5032107;28;19975;-70
2021/06/06 14:04:10;;;;;;;;;;;22.30;69.20;;;;;;5042394;28;19973;-71
2021/06/06 14:06:36;;;;;;;;;;;22.30;69.10;;;;;;5042625;28;19959;-70
2021/06/06 14:09:04;;;;;;;;;;;22.30;69.10;;;;;;5021557;28;19976;-70
2021/06/06 14:11:30;;;;;;;;;;;22.30;69.00;;;;;;5041299;28;20008;-71
2021/06/06 14:13:56;;;;;;;;;;;22.30;69.10;;;;;;5034107;28;20066;-71
2021/06/06 14:16:24;;;;;;;;;;;22.30;69.00;;;;;;5046419;28;19972;-71